createdAt,value
2018-04-06T00:02:09.434Z,1.50
2018-04-06T00:04:37.616Z,1.40
2018-04-06T00:07:05.737Z,1.30
2018-04-06T00:09:33.881Z,1.30
2018-04-06T00:12:05.584Z,1.40
2018-04-06T00:14:33.752Z,1.30
2018-04-06T00:17:01.946Z,1.30
2018-04-06T00:19:30.091Z,1.20
2018-04-06T00:21:58.278Z,1.10
2018-04-06T00:24:26.437Z,1.20
2018-04-06T00:26:54.581Z,1.20
2018-04-06T00:29:22.734Z,1.30
2018-04-06T00:31:54.859Z,1.20
2018-04-06T00:34:29.317Z,1.20
2018-04-06T00:36:57.492Z,1.20
2018-04-06T00:39:29.097Z,1.30
2018-04-06T00:41:57.383Z,1.20
2018-04-06T00:44:25.576Z,1.20
2018-04-06T00:46:53.728Z,1.30
2018-04-06T00:49:21.875Z,1.20
2018-04-06T00:51:50.904Z,1.00
2018-04-06T00:54:19.093Z,1.00
2018-04-06T00:56:47.250Z,0.90
2018-04-06T00:59:15.413Z,0.80
2018-04-06T01:01:43.608Z,0.80
2018-04-06T01:04:11.770Z,0.70
2018-04-06T01:06:39.901Z,0.70
2018-04-06T01:09:08.082Z,0.60
2018-04-06T01:11:36.294Z,0.60
2018-04-06T01:14:04.448Z,0.60
2018-04-06T01:16:33.353Z,0.50
2018-04-06T01:19:01.507Z,0.50
2018-04-06T01:21:29.815Z,0.60
2018-04-06T01:23:57.990Z,0.60
2018-04-06T01:26:26.157Z,0.60
2018-04-06T01:28:54.317Z,0.60
2018-04-06T01:31:23.232Z,0.70
2018-04-06T01:33:51.413Z,0.70
2018-04-06T01:36:20.309Z,0.70
2018-04-06T01:38:48.533Z,0.70
2018-04-06T01:41:16.686Z,0.60
2018-04-06T01:43:45.725Z,0.70
2018-04-06T01:46:13.859Z,0.70
2018-04-06T01:48:42.033Z,0.70
2018-04-06T01:51:10.193Z,0.70
2018-04-06T01:53:38.343Z,0.80
2018-04-06T01:56:06.509Z,0.70
2018-04-06T01:58:34.655Z,0.60
2018-04-06T02:01:03.583Z,0.60
2018-04-06T02:03:31.735Z,0.60
2018-04-06T02:05:59.915Z,0.50
2018-04-06T02:08:28.080Z,0.40
2018-04-06T02:10:56.229Z,0.40
2018-04-06T02:13:24.414Z,0.50
2018-04-06T02:15:52.599Z,0.60
2018-04-06T02:18:20.767Z,0.50
2018-04-06T02:20:49.384Z,0.40
2018-04-06T02:23:17.530Z,0.30
2018-04-06T02:25:45.682Z,0.30
2018-04-06T02:28:13.963Z,0.20
2018-04-06T02:30:42.117Z,0.10
2018-04-06T02:33:10.264Z,0.10
2018-04-06T02:35:38.421Z,0.10
2018-04-06T02:38:06.570Z,0.10
2018-04-06T02:40:34.719Z,0.10
2018-04-06T02:43:02.924Z,0.20
2018-04-06T02:45:31.907Z,0.30
2018-04-06T02:48:00.050Z,0.30
2018-04-06T02:50:28.212Z,0.40
2018-04-06T02:52:56.498Z,0.30
2018-04-06T02:55:24.638Z,0.20
2018-04-06T02:57:52.789Z,0.10
2018-04-06T03:00:20.945Z,0.00
2018-04-06T03:02:49.139Z,0.10
2018-04-06T03:05:17.288Z,0.20
2018-04-06T03:07:46.304Z,0.00
2018-04-06T03:10:14.485Z,0.00
2018-04-06T03:12:43.882Z,0.00
2018-04-06T03:15:12.032Z,0.00
2018-04-06T03:17:40.183Z,0.00
2018-04-06T03:20:08.331Z,0.00
2018-04-06T03:22:36.587Z,0.00
2018-04-06T03:25:04.769Z,-0.10
2018-04-06T03:27:32.938Z,-0.20
2018-04-06T03:30:01.081Z,-0.20
2018-04-06T03:32:30.082Z,0.00
2018-04-06T03:34:59.004Z,0.00
2018-04-06T03:37:27.174Z,0.00
2018-04-06T03:39:55.334Z,0.00
2018-04-06T03:42:23.614Z,-0.10
2018-04-06T03:44:51.794Z,-0.10
2018-04-06T03:47:19.994Z,-0.10
2018-04-06T03:49:48.178Z,0.00
2018-04-06T03:52:16.328Z,-0.10
2018-04-06T03:54:44.479Z,-0.20
2018-04-06T03:57:12.666Z,-0.30
2018-04-06T03:59:40.860Z,-0.20
2018-04-06T04:02:09.377Z,-0.30
2018-04-06T04:04:37.538Z,-0.20
2018-04-06T04:07:05.683Z,-0.20
2018-04-06T04:09:34.118Z,-0.30
2018-04-06T04:12:03.146Z,-0.30
2018-04-06T04:14:31.537Z,-0.30
2018-04-06T04:16:59.697Z,-0.30
2018-04-06T04:19:27.852Z,-0.30
2018-04-06T04:21:56.044Z,-0.10
2018-04-06T04:24:24.193Z,0.00
2018-04-06T04:26:53.240Z,0.00
2018-04-06T04:29:21.394Z,0.00
2018-04-06T04:31:49.585Z,0.00
2018-04-06T04:34:17.769Z,0.00
2018-04-06T04:36:45.914Z,0.10
2018-04-06T04:39:14.082Z,0.00
2018-04-06T04:41:42.274Z,-0.10
2018-04-06T04:44:10.435Z,-0.20
2018-04-06T04:46:38.595Z,-0.30
2018-04-06T04:49:06.798Z,-0.30
2018-04-06T04:51:37.467Z,-0.30
2018-04-06T04:54:05.645Z,-0.30
2018-04-06T04:56:33.801Z,-0.20
2018-04-06T04:59:01.953Z,-0.10
2018-04-06T05:01:30.229Z,-0.10
2018-04-06T05:03:58.444Z,-0.20
2018-04-06T05:06:26.656Z,-0.20
2018-04-06T05:08:54.828Z,-0.20
2018-04-06T05:11:23.004Z,-0.20
2018-04-06T05:13:51.150Z,-0.20
2018-04-06T05:16:19.321Z,-0.20
2018-04-06T05:18:48.243Z,-0.20
2018-04-06T05:21:16.424Z,-0.20
2018-04-06T05:23:44.591Z,-0.20
2018-04-06T05:26:12.772Z,-0.20
2018-04-06T05:28:40.931Z,-0.20
2018-04-06T05:31:09.086Z,-0.20
2018-04-06T05:33:37.237Z,-0.10
2018-04-06T05:36:05.398Z,0.00
2018-04-06T05:38:33.553Z,0.00
2018-04-06T05:41:01.741Z,0.20
2018-04-06T05:43:29.932Z,0.30
2018-04-06T05:45:58.159Z,0.40
2018-04-06T05:48:26.335Z,0.40
2018-04-06T05:50:54.490Z,0.30
2018-04-06T05:53:23.595Z,0.30
2018-04-06T05:55:51.961Z,0.40
2018-04-06T05:58:20.147Z,0.50
2018-04-06T06:00:49.083Z,0.60
2018-04-06T06:03:18.088Z,0.60
2018-04-06T06:05:46.230Z,0.60
2018-04-06T06:08:14.392Z,0.80
2018-04-06T06:10:42.560Z,0.90
2018-04-06T06:13:11.198Z,0.90
2018-04-06T06:15:39.358Z,1.00
2018-04-06T06:18:07.523Z,1.20
2018-04-06T06:20:35.719Z,1.30
2018-04-06T06:23:04.001Z,1.50
2018-04-06T06:25:32.172Z,1.50
2018-04-06T06:28:00.339Z,1.70
2018-04-06T06:30:28.491Z,1.80
2018-04-06T06:32:56.664Z,1.80
2018-04-06T06:35:24.816Z,2.00
2018-04-06T06:37:52.998Z,2.00
2018-04-06T06:40:21.166Z,2.10
2018-04-06T06:42:49.340Z,2.10
2018-04-06T06:45:17.527Z,2.30
2018-04-06T06:47:45.676Z,2.40
2018-04-06T06:50:13.834Z,2.50
2018-04-06T06:52:42.042Z,2.60
2018-04-06T06:55:10.195Z,2.60
2018-04-06T06:57:38.363Z,2.80
2018-04-06T07:00:06.544Z,2.80
2018-04-06T07:02:34.797Z,2.90
2018-04-06T07:05:03.034Z,2.90
2018-04-06T07:07:31.198Z,3.00
2018-04-06T07:09:59.387Z,3.20
2018-04-06T07:12:28.757Z,3.40
2018-04-06T07:14:56.922Z,3.40
2018-04-06T07:17:25.142Z,3.50
2018-04-06T07:19:54.190Z,3.70
2018-04-06T07:22:29.680Z,4.00
2018-04-06T07:24:57.916Z,4.20
2018-04-06T07:27:26.114Z,4.30
2018-04-06T07:29:54.277Z,4.50
2018-04-06T07:32:30.154Z,4.80
2018-04-06T07:35:11.202Z,4.90
2018-04-06T07:37:40.478Z,5.10
2018-04-06T07:40:13.391Z,5.40
2018-04-06T07:42:42.586Z,5.40
2018-04-06T07:45:11.995Z,5.50
2018-04-06T07:47:40.206Z,5.50
2018-04-06T07:50:09.130Z,5.60
2018-04-06T07:52:38.784Z,5.70
2018-04-06T07:55:06.961Z,5.70
2018-04-06T07:57:38.207Z,5.80
2018-04-06T08:00:06.388Z,6.00
2018-04-06T08:02:36.983Z,6.20
2018-04-06T08:05:05.207Z,6.30
2018-04-06T08:07:33.381Z,6.40
2018-04-06T08:10:03.683Z,6.70
2018-04-06T08:12:32.799Z,6.80
2018-04-06T08:15:01.711Z,6.90
2018-04-06T08:17:30.661Z,7.20
2018-04-06T08:19:58.933Z,7.20
2018-04-06T08:22:29.181Z,7.30
2018-04-06T08:24:57.448Z,7.40
2018-04-06T08:27:25.613Z,7.50
2018-04-06T08:29:53.836Z,7.60
2018-04-06T08:32:24.276Z,7.80
2018-04-06T08:34:52.461Z,7.70
2018-04-06T08:37:21.374Z,7.90
2018-04-06T08:39:50.429Z,7.90
2018-04-06T08:42:19.443Z,8.00
2018-04-06T08:44:47.652Z,8.00
2018-04-06T08:47:16.899Z,8.10
2018-04-06T08:49:45.818Z,8.20
2018-04-06T08:52:13.983Z,8.20
2018-04-06T08:54:42.194Z,8.30
2018-04-06T08:57:10.321Z,8.50
2018-04-06T08:59:38.570Z,8.60
2018-04-06T09:02:06.718Z,8.70
2018-04-06T09:04:34.870Z,8.80
2018-04-06T09:07:03.060Z,9.00
2018-04-06T09:09:31.299Z,9.10
2018-04-06T09:12:00.372Z,9.20
2018-04-06T09:14:28.530Z,9.20
2018-04-06T09:16:56.690Z,9.30
2018-04-06T09:19:24.858Z,9.30
2018-04-06T09:21:53.095Z,9.40
2018-04-06T09:24:22.092Z,9.50
2018-04-06T09:26:50.251Z,9.50
2018-04-06T09:29:18.429Z,9.60
2018-04-06T09:31:46.623Z,9.70
2018-04-06T09:34:15.546Z,9.70
2018-04-06T09:36:43.699Z,9.70
2018-04-06T09:39:11.848Z,9.90
2018-04-06T09:41:40.208Z,10.00
2018-04-06T09:44:08.349Z,10.10
2018-04-06T09:46:36.586Z,10.10
2018-04-06T09:49:05.521Z,10.20
2018-04-06T09:51:33.680Z,10.20
2018-04-06T09:54:02.483Z,10.30
2018-04-06T09:56:30.659Z,10.30
2018-04-06T09:58:58.837Z,10.40
2018-04-06T10:01:32.594Z,10.50
2018-04-06T10:04:01.410Z,10.50
2018-04-06T10:06:30.181Z,10.60
2018-04-06T10:08:59.204Z,10.70
2018-04-06T10:11:27.446Z,10.80
2018-04-06T10:13:56.378Z,10.90
2018-04-06T10:16:24.566Z,11.00
2018-04-06T10:18:52.753Z,11.10
2018-04-06T10:21:21.722Z,11.40
2018-04-06T10:23:49.880Z,11.30
2018-04-06T10:26:18.054Z,11.40
2018-04-06T10:28:46.248Z,11.50
2018-04-06T10:31:14.487Z,11.50
2018-04-06T10:33:42.673Z,11.60
2018-04-06T10:36:10.857Z,11.60
2018-04-06T10:38:39.054Z,11.70
2018-04-06T10:41:07.245Z,11.70
2018-04-06T10:43:36.209Z,11.90
2018-04-06T10:46:04.373Z,11.80
2018-04-06T10:48:32.546Z,11.90
2018-04-06T10:51:00.719Z,11.90
2018-04-06T10:53:29.076Z,12.00
2018-04-06T10:55:57.988Z,12.20
2018-04-06T10:58:26.376Z,12.20
2018-04-06T11:00:54.916Z,12.20
2018-04-06T11:03:23.239Z,12.30
2018-04-06T11:05:51.402Z,12.30
2018-04-06T11:08:19.610Z,12.40
2018-04-06T11:10:47.817Z,12.50
2018-04-06T11:13:15.993Z,12.60
2018-04-06T11:15:44.246Z,12.60
2018-04-06T11:18:12.475Z,12.60
2018-04-06T11:20:40.748Z,12.70
2018-04-06T11:23:08.940Z,12.80
2018-04-06T11:25:37.108Z,12.80
2018-04-06T11:28:05.389Z,12.80
2018-04-06T11:30:33.576Z,12.90
2018-04-06T11:33:02.101Z,13.10
2018-04-06T11:35:30.761Z,13.30
2018-04-06T11:38:00.186Z,13.30
2018-04-06T11:40:29.639Z,13.40
2018-04-06T11:42:59.354Z,13.40
2018-04-06T11:45:27.526Z,13.50
2018-04-06T11:47:55.899Z,13.60
2018-04-06T11:50:24.072Z,13.70
2018-04-06T11:52:52.324Z,13.90
2018-04-06T11:55:21.522Z,14.00
2018-04-06T11:57:49.973Z,14.00
2018-04-06T12:00:18.996Z,14.10
2018-04-06T12:02:48.211Z,14.10
2018-04-06T12:05:16.385Z,14.10
2018-04-06T12:07:44.581Z,14.20
2018-04-06T12:10:13.755Z,14.40
2018-04-06T12:12:46.873Z,14.30
2018-04-06T12:15:20.793Z,14.40
2018-04-06T12:17:50.317Z,14.60
2018-04-06T12:20:19.844Z,14.60
2018-04-06T12:22:53.454Z,14.60
2018-04-06T12:25:21.623Z,14.60
2018-04-06T12:27:49.774Z,14.80
2018-04-06T12:30:18.190Z,14.90
2018-04-06T12:32:46.414Z,15.10
2018-04-06T12:35:15.338Z,15.20
2018-04-06T12:37:43.521Z,15.20
2018-04-06T12:40:12.599Z,15.30
2018-04-06T12:42:41.642Z,15.30
2018-04-06T12:45:10.593Z,15.50
2018-04-06T12:47:39.089Z,15.50
2018-04-06T12:50:08.148Z,15.60
2018-04-06T12:52:36.334Z,15.60
2018-04-06T12:55:06.083Z,15.70
2018-04-06T12:57:35.574Z,15.80
2018-04-06T13:00:03.737Z,15.80
2018-04-06T13:02:32.741Z,15.90
2018-04-06T13:05:00.893Z,15.90
2018-04-06T13:07:29.742Z,16.00
2018-04-06T13:09:58.168Z,16.00
2018-04-06T13:12:26.442Z,16.10
2018-04-06T13:14:54.619Z,16.20
2018-04-06T13:17:23.992Z,16.30
2018-04-06T13:19:52.457Z,16.40
2018-04-06T13:22:20.632Z,16.60
2018-04-06T13:24:48.814Z,16.90
2018-04-06T13:27:16.976Z,17.00
2018-04-06T13:29:45.151Z,17.20
2018-04-06T13:32:13.478Z,17.40
2018-04-06T13:34:41.636Z,17.50
2018-04-06T13:37:11.658Z,17.60
2018-04-06T13:39:40.681Z,17.60
2018-04-06T13:42:09.867Z,17.60
2018-04-06T13:44:38.065Z,17.70
2018-04-06T13:47:06.218Z,18.40
2018-04-06T13:49:34.373Z,19.60
2018-04-06T13:52:03.447Z,20.90
2018-04-06T13:54:32.388Z,23.30
2018-04-06T13:57:00.553Z,23.20
2018-04-06T13:59:28.710Z,23.80
2018-04-06T14:01:56.869Z,24.50
2018-04-06T14:04:25.019Z,24.90
2018-04-06T14:06:53.946Z,24.60
2018-04-06T14:09:22.152Z,24.60
2018-04-06T14:11:57.662Z,25.00
2018-04-06T14:14:26.083Z,25.80
2018-04-06T14:16:54.270Z,26.50
2018-04-06T14:19:22.442Z,27.30
2018-04-06T14:21:50.725Z,28.20
2018-04-06T14:24:18.867Z,28.00
2018-04-06T14:26:47.036Z,27.90
2018-04-06T14:29:15.180Z,27.70
2018-04-06T14:31:54.798Z,27.40
2018-04-06T14:34:22.957Z,27.40
2018-04-06T14:36:51.106Z,27.50
2018-04-06T14:39:19.358Z,27.90
2018-04-06T14:41:51.627Z,27.50
2018-04-06T14:44:19.799Z,27.70
2018-04-06T14:46:47.970Z,27.70
2018-04-06T14:49:16.127Z,27.50
2018-04-06T14:51:47.288Z,27.60
2018-04-06T14:54:15.505Z,27.60
2018-04-06T14:56:43.758Z,27.10
2018-04-06T14:59:12.753Z,26.60
2018-04-06T15:01:41.949Z,26.60
2018-04-06T15:04:10.144Z,26.80
2018-04-06T15:06:38.301Z,27.50
2018-04-06T15:09:08.256Z,29.20
2018-04-06T15:11:42.286Z,29.20
2018-04-06T15:14:11.209Z,29.40
2018-04-06T15:16:39.393Z,29.40
2018-04-06T15:19:08.528Z,29.70
2018-04-06T15:21:37.979Z,29.40
2018-04-06T15:24:06.162Z,29.30
2018-04-06T15:26:34.329Z,29.60
2018-04-06T15:29:02.484Z,29.90
2018-04-06T15:31:37.028Z,30.40
2018-04-06T15:34:06.266Z,30.40
2018-04-06T15:36:34.465Z,29.40
2018-04-06T15:39:04.829Z,28.20
2018-04-06T15:41:32.998Z,28.20
2018-04-06T15:44:01.172Z,27.70
2018-04-06T15:46:29.346Z,27.20
2018-04-06T15:48:57.558Z,25.40
2018-04-06T15:51:27.735Z,23.70
2018-04-06T15:53:55.906Z,22.10
2018-04-06T15:56:24.081Z,21.10
2018-04-06T15:58:53.141Z,20.30
2018-04-06T16:01:22.075Z,19.00
2018-04-06T16:03:50.273Z,18.90
2018-04-06T16:06:19.455Z,18.50
2018-04-06T16:08:48.504Z,18.20
2018-04-06T16:11:16.669Z,17.90
2018-04-06T16:13:45.177Z,17.80
2018-04-06T16:16:13.322Z,17.50
2018-04-06T16:18:42.520Z,17.30
2018-04-06T16:21:10.868Z,17.00
2018-04-06T16:23:39.052Z,16.90
2018-04-06T16:26:07.924Z,16.80
2018-04-06T16:28:36.945Z,16.60
2018-04-06T16:31:05.971Z,16.60
2018-04-06T16:33:34.177Z,16.50
2018-04-06T16:36:02.355Z,16.40
2018-04-06T16:38:30.530Z,16.30
2018-04-06T16:40:59.644Z,16.20
2018-04-06T16:43:27.894Z,16.10
2018-04-06T16:45:56.876Z,16.00
2018-04-06T16:48:25.852Z,16.00
2018-04-06T16:50:54.020Z,15.90
2018-04-06T16:53:22.193Z,15.90
2018-04-06T16:55:50.370Z,15.80
2018-04-06T16:58:19.313Z,15.70
2018-04-06T17:00:47.465Z,15.60
2018-04-06T17:03:15.731Z,15.60
2018-04-06T17:05:43.903Z,15.50
2018-04-06T17:08:12.858Z,15.40
2018-04-06T17:10:41.013Z,15.40
2018-04-06T17:13:09.260Z,15.40
2018-04-06T17:15:39.086Z,15.30
2018-04-06T17:18:07.272Z,15.30
2018-04-06T17:20:36.873Z,15.10
2018-04-06T17:23:05.106Z,15.10
2018-04-06T17:25:35.113Z,14.90
2018-04-06T17:28:03.367Z,14.90
2018-04-06T17:30:31.957Z,14.90
2018-04-06T17:33:12.584Z,14.70
2018-04-06T17:35:41.825Z,14.70
2018-04-06T17:38:10.267Z,14.50
2018-04-06T17:40:38.420Z,14.50
2018-04-06T17:43:07.033Z,14.40
2018-04-06T17:45:38.249Z,14.30
2018-04-06T17:48:08.054Z,14.20
2018-04-06T17:50:36.990Z,14.00
2018-04-06T17:53:10.389Z,13.90
2018-04-06T17:55:38.846Z,13.90
2018-04-06T17:58:07.507Z,13.70
2018-04-06T18:00:36.924Z,13.70
2018-04-06T18:03:08.853Z,13.60
2018-04-06T18:05:37.133Z,13.40
2018-04-06T18:08:05.278Z,13.30
2018-04-06T18:10:33.529Z,13.10
2018-04-06T18:13:04.419Z,13.10
2018-04-06T18:15:33.871Z,13.00
2018-04-06T18:18:02.025Z,12.80
2018-04-06T18:20:31.423Z,12.80
2018-04-06T18:22:59.721Z,12.70
2018-04-06T18:25:28.960Z,12.60
2018-04-06T18:27:57.109Z,12.50
2018-04-06T18:30:25.715Z,12.40
2018-04-06T18:32:53.882Z,12.20
2018-04-06T18:35:23.076Z,12.10
2018-04-06T18:37:51.257Z,12.00
2018-04-06T18:40:19.423Z,11.70
2018-04-06T18:42:51.040Z,11.50
2018-04-06T18:45:20.531Z,11.40
2018-04-06T18:47:48.826Z,11.30
2018-04-06T18:50:18.148Z,11.20
2018-04-06T18:52:47.430Z,11.10
2018-04-06T18:55:15.683Z,10.90
2018-04-06T18:57:44.714Z,10.50
2018-04-06T19:00:12.887Z,10.50
2018-04-06T19:02:41.155Z,10.20
2018-04-06T19:05:09.315Z,10.10
2018-04-06T19:07:37.469Z,9.90
2018-04-06T19:10:08.944Z,9.40
2018-04-06T19:12:37.201Z,9.40
2018-04-06T19:15:06.155Z,9.00
2018-04-06T19:17:34.836Z,8.90
2018-04-06T19:20:03.042Z,8.90
2018-04-06T19:22:31.266Z,8.80
2018-04-06T19:24:59.478Z,8.80
2018-04-06T19:27:28.015Z,8.80
2018-04-06T19:29:56.437Z,8.60
2018-04-06T19:32:26.910Z,8.50
2018-04-06T19:34:55.101Z,8.40
2018-04-06T19:37:24.200Z,8.30
2018-04-06T19:39:53.110Z,8.20
2018-04-06T19:42:21.388Z,8.00
2018-04-06T19:44:49.541Z,7.90
2018-04-06T19:47:18.531Z,7.70
2018-04-06T19:49:46.718Z,7.60
2018-04-06T19:52:14.876Z,7.60
2018-04-06T19:54:43.012Z,7.50
2018-04-06T19:57:12.030Z,7.60
2018-04-06T19:59:40.191Z,7.30
2018-04-06T20:02:10.233Z,7.40
2018-04-06T20:04:38.427Z,7.30
2018-04-06T20:07:06.627Z,7.30
2018-04-06T20:09:35.488Z,7.20
2018-04-06T20:12:04.759Z,7.10
2018-04-06T20:14:34.959Z,7.00
2018-04-06T20:17:03.326Z,6.90
2018-04-06T20:19:31.523Z,6.80
2018-04-06T20:22:00.024Z,6.70
2018-04-06T20:24:28.172Z,6.70
2018-04-06T20:26:57.107Z,6.70
2018-04-06T20:29:25.274Z,6.70
2018-04-06T20:31:57.861Z,6.60
2018-04-06T20:34:26.109Z,6.60
2018-04-06T20:36:54.270Z,6.50
2018-04-06T20:39:23.322Z,6.40
2018-04-06T20:41:51.478Z,6.40
2018-04-06T20:44:19.634Z,6.40
2018-04-06T20:46:47.792Z,6.40
2018-04-06T20:49:16.062Z,6.50
2018-04-06T20:51:44.379Z,6.40
2018-04-06T20:54:12.588Z,6.30
2018-04-06T20:56:40.754Z,6.20
2018-04-06T20:59:09.838Z,6.10
2018-04-06T21:01:38.077Z,6.00
2018-04-06T21:04:06.317Z,6.00
2018-04-06T21:06:34.520Z,5.80
2018-04-06T21:09:04.104Z,5.70
2018-04-06T21:11:34.615Z,5.70
2018-04-06T21:14:02.936Z,5.70
2018-04-06T21:16:31.178Z,5.70
2018-04-06T21:19:03.121Z,5.70
2018-04-06T21:21:35.152Z,5.80
2018-04-06T21:24:03.330Z,5.80
2018-04-06T21:26:32.255Z,5.70
2018-04-06T21:29:01.959Z,5.70
2018-04-06T21:31:31.268Z,5.60
2018-04-06T21:34:02.204Z,5.60
2018-04-06T21:36:33.533Z,5.40
2018-04-06T21:39:01.849Z,5.40
2018-04-06T21:41:31.442Z,5.40
2018-04-06T21:44:00.524Z,5.20
2018-04-06T21:46:28.798Z,5.10
2018-04-06T21:48:59.147Z,5.00
2018-04-06T21:51:31.027Z,4.90
2018-04-06T21:54:00.809Z,5.00
2018-04-06T21:56:29.115Z,4.90
2018-04-06T21:58:57.306Z,5.00
2018-04-06T22:01:25.733Z,4.90
2018-04-06T22:03:54.334Z,4.80
2018-04-06T22:06:22.504Z,4.70
2018-04-06T22:08:52.618Z,4.80
2018-04-06T22:11:21.885Z,4.80
2018-04-06T22:13:52.156Z,4.70
2018-04-06T22:16:20.443Z,4.80
2018-04-06T22:18:48.614Z,4.80
2018-04-06T22:21:17.208Z,4.80
2018-04-06T22:23:46.162Z,4.70
2018-04-06T22:26:14.568Z,4.70
2018-04-06T22:28:43.936Z,4.60
2018-04-06T22:31:12.140Z,4.50
2018-04-06T22:33:42.689Z,4.50
2018-04-06T22:36:11.635Z,4.50
2018-04-06T22:38:40.685Z,4.50
2018-04-06T22:41:09.254Z,4.40
2018-04-06T22:43:39.158Z,4.30
2018-04-06T22:46:08.533Z,4.20
2018-04-06T22:48:37.518Z,4.00
2018-04-06T22:51:09.140Z,3.90
2018-04-06T22:53:38.350Z,4.00
2018-04-06T22:56:08.057Z,4.10
2018-04-06T22:58:36.285Z,4.10
2018-04-06T23:01:05.433Z,4.00
2018-04-06T23:03:34.773Z,3.90
2018-04-06T23:06:04.244Z,3.90
2018-04-06T23:08:35.719Z,3.80
2018-04-06T23:11:04.888Z,3.70
2018-04-06T23:13:36.428Z,3.60
2018-04-06T23:16:06.460Z,3.60
2018-04-06T23:18:34.735Z,3.50
2018-04-06T23:21:03.963Z,3.60
2018-04-06T23:23:32.204Z,3.70
2018-04-06T23:26:00.421Z,3.80
2018-04-06T23:28:29.580Z,3.80
2018-04-06T23:30:57.743Z,3.70
2018-04-06T23:33:25.882Z,3.60
2018-04-06T23:35:54.906Z,3.50
2018-04-06T23:38:23.120Z,3.50
2018-04-06T23:40:51.305Z,3.50
2018-04-06T23:43:19.544Z,3.30
2018-04-06T23:45:47.716Z,3.20
2018-04-06T23:48:16.416Z,3.20
2018-04-06T23:50:44.590Z,3.30
2018-04-06T23:53:13.908Z,3.30
2018-04-06T23:55:43.853Z,3.30
2018-04-06T23:58:12.069Z,3.30
